sensor_id;sensor_type;location;lat;lon;timestamp;P1;durP1;ratioP1;P2;durP2;ratioP2
11907;SDS011;6014;47.690;9.130;2023-07-13T00:00:16;6.80;;;2.88;;
11907;SDS011;6014;47.690;9.130;2023-07-13T00:02:45;5.55;;;3.20;;
11907;SDS011;6014;47.690;9.130;2023-07-13T00:05:14;6.70;;;3.05;;
11907;SDS011;6014;47.690;9.130;2023-07-13T00:07:42;5.47;;;2.60;;
11907;SDS011;6014;47.690;9.130;2023-07-13T00:10:12;5.10;;;2.55;;
11907;SDS011;6014;47.690;9.130;2023-07-13T00:12:42;7.45;;;2.78;;
11907;SDS011;6014;47.690;9.130;2023-07-13T00:15:12;7.93;;;3.10;;
11907;SDS011;6014;47.690;9.130;2023-07-13T00:17:43;8.32;;;3.20;;
11907;SDS011;6014;47.690;9.130;2023-07-13T00:20:12;6.82;;;2.50;;
11907;SDS011;6014;47.690;9.130;2023-07-13T00:22:40;6.25;;;2.53;;
11907;SDS011;6014;47.690;9.130;2023-07-13T00:25:16;5.70;;;3.05;;
11907;SDS011;6014;47.690;9.130;2023-07-13T00:27:46;5.63;;;3.05;;
11907;SDS011;6014;47.690;9.130;2023-07-13T00:30:16;7.38;;;2.60;;
11907;SDS011;6014;47.690;9.130;2023-07-13T00:32:45;7.03;;;2.78;;
11907;SDS011;6014;47.690;9.130;2023-07-13T00:35:13;5.03;;;2.70;;
11907;SDS011;6014;47.690;9.130;2023-07-13T00:37:42;6.32;;;3.17;;
11907;SDS011;6014;47.690;9.130;2023-07-13T00:40:11;7.95;;;2.95;;
11907;SDS011;6014;47.690;9.130;2023-07-13T00:42:41;7.78;;;3.20;;
11907;SDS011;6014;47.690;9.130;2023-07-13T00:48:47;4.88;;;2.33;;
11907;SDS011;6014;47.690;9.130;2023-07-13T00:51:19;5.07;;;2.70;;
11907;SDS011;6014;47.690;9.130;2023-07-13T00:53:53;6.60;;;2.95;;
11907;SDS011;6014;47.690;9.130;2023-07-13T00:56:24;6.65;;;3.10;;
11907;SDS011;6014;47.690;9.130;2023-07-13T00:58:54;6.97;;;2.80;;
11907;SDS011;6014;47.690;9.130;2023-07-13T01:01:25;5.13;;;2.53;;
11907;SDS011;6014;47.690;9.130;2023-07-13T01:03:55;8.50;;;3.42;;
11907;SDS011;6014;47.690;9.130;2023-07-13T01:06:24;6.40;;;3.00;;
11907;SDS011;6014;47.690;9.130;2023-07-13T01:08:53;4.55;;;2.45;;
11907;SDS011;6014;47.690;9.130;2023-07-13T01:11:22;5.35;;;2.90;;
11907;SDS011;6014;47.690;9.130;2023-07-13T01:13:50;6.55;;;2.90;;
11907;SDS011;6014;47.690;9.130;2023-07-13T01:16:22;6.78;;;3.22;;
11907;SDS011;6014;47.690;9.130;2023-07-13T01:18:53;5.65;;;2.40;;
11907;SDS011;6014;47.690;9.130;2023-07-13T01:21:33;4.57;;;2.47;;
11907;SDS011;6014;47.690;9.130;2023-07-13T01:24:01;6.03;;;2.33;;
11907;SDS011;6014;47.690;9.130;2023-07-13T01:26:29;8.82;;;2.60;;
11907;SDS011;6014;47.690;9.130;2023-07-13T01:28:57;7.70;;;2.70;;
11907;SDS011;6014;47.690;9.130;2023-07-13T01:31:26;7.18;;;2.88;;
11907;SDS011;6014;47.690;9.130;2023-07-13T01:33:54;6.13;;;2.92;;
11907;SDS011;6014;47.690;9.130;2023-07-13T01:36:24;5.82;;;2.50;;
11907;SDS011;6014;47.690;9.130;2023-07-13T01:38:53;4.50;;;2.38;;
11907;SDS011;6014;47.690;9.130;2023-07-13T01:41:22;7.70;;;3.30;;
11907;SDS011;6014;47.690;9.130;2023-07-13T01:43:50;5.93;;;2.97;;
11907;SDS011;6014;47.690;9.130;2023-07-13T01:46:18;5.05;;;2.63;;
11907;SDS011;6014;47.690;9.130;2023-07-13T01:48:49;7.18;;;2.85;;
11907;SDS011;6014;47.690;9.130;2023-07-13T01:51:19;5.93;;;2.58;;
11907;SDS011;6014;47.690;9.130;2023-07-13T01:53:48;8.68;;;2.60;;
11907;SDS011;6014;47.690;9.130;2023-07-13T01:56:18;4.95;;;2.97;;
11907;SDS011;6014;47.690;9.130;2023-07-13T01:58:48;5.00;;;3.08;;
11907;SDS011;6014;47.690;9.130;2023-07-13T02:01:16;5.80;;;2.65;;
11907;SDS011;6014;47.690;9.130;2023-07-13T02:03:44;5.38;;;2.90;;
11907;SDS011;6014;47.690;9.130;2023-07-13T02:06:13;6.55;;;2.65;;
11907;SDS011;6014;47.690;9.130;2023-07-13T02:08:41;8.38;;;4.93;;
11907;SDS011;6014;47.690;9.130;2023-07-13T02:11:11;6.95;;;3.08;;
11907;SDS011;6014;47.690;9.130;2023-07-13T02:13:41;10.75;;;3.17;;
11907;SDS011;6014;47.690;9.130;2023-07-13T02:16:09;6.28;;;3.05;;
11907;SDS011;6014;47.690;9.130;2023-07-13T02:18:38;6.50;;;3.03;;
11907;SDS011;6014;47.690;9.130;2023-07-13T02:21:07;6.25;;;2.63;;
11907;SDS011;6014;47.690;9.130;2023-07-13T02:23:36;11.07;;;3.85;;
11907;SDS011;6014;47.690;9.130;2023-07-13T02:26:05;7.72;;;3.22;;
11907;SDS011;6014;47.690;9.130;2023-07-13T02:28:33;5.75;;;3.03;;
11907;SDS011;6014;47.690;9.130;2023-07-13T02:31:06;8.60;;;3.22;;
11907;SDS011;6014;47.690;9.130;2023-07-13T02:33:36;5.22;;;2.83;;
11907;SDS011;6014;47.690;9.130;2023-07-13T02:36:14;6.28;;;2.80;;
11907;SDS011;6014;47.690;9.130;2023-07-13T02:38:43;9.70;;;3.20;;
11907;SDS011;6014;47.690;9.130;2023-07-13T02:41:11;5.15;;;2.70;;
11907;SDS011;6014;47.690;9.130;2023-07-13T02:43:41;7.57;;;3.42;;
11907;SDS011;6014;47.690;9.130;2023-07-13T02:46:12;5.05;;;3.20;;
11907;SDS011;6014;47.690;9.130;2023-07-13T02:48:41;7.28;;;3.40;;
11907;SDS011;6014;47.690;9.130;2023-07-13T02:51:09;6.30;;;2.95;;
11907;SDS011;6014;47.690;9.130;2023-07-13T02:53:37;6.78;;;3.17;;
11907;SDS011;6014;47.690;9.130;2023-07-13T02:56:05;7.03;;;3.47;;
11907;SDS011;6014;47.690;9.130;2023-07-13T03:01:07;4.60;;;2.35;;
11907;SDS011;6014;47.690;9.130;2023-07-13T03:03:39;5.03;;;3.20;;
11907;SDS011;6014;47.690;9.130;2023-07-13T03:06:08;5.07;;;2.60;;
11907;SDS011;6014;47.690;9.130;2023-07-13T03:08:36;6.25;;;2.90;;
11907;SDS011;6014;47.690;9.130;2023-07-13T03:11:06;7.60;;;2.67;;
11907;SDS011;6014;47.690;9.130;2023-07-13T03:13:38;6.03;;;3.55;;
11907;SDS011;6014;47.690;9.130;2023-07-13T03:16:08;4.25;;;2.33;;
11907;SDS011;6014;47.690;9.130;2023-07-13T03:18:42;4.82;;;2.50;;
11907;SDS011;6014;47.690;9.130;2023-07-13T03:21:10;5.90;;;2.63;;
11907;SDS011;6014;47.690;9.130;2023-07-13T03:23:39;6.13;;;3.05;;
11907;SDS011;6014;47.690;9.130;2023-07-13T03:26:10;5.75;;;2.78;;
11907;SDS011;6014;47.690;9.130;2023-07-13T03:28:41;7.20;;;2.88;;
11907;SDS011;6014;47.690;9.130;2023-07-13T03:31:11;6.25;;;2.53;;
11907;SDS011;6014;47.690;9.130;2023-07-13T03:33:44;9.13;;;2.80;;
11907;SDS011;6014;47.690;9.130;2023-07-13T03:36:13;5.72;;;2.63;;
11907;SDS011;6014;47.690;9.130;2023-07-13T03:38:46;6.13;;;2.65;;
11907;SDS011;6014;47.690;9.130;2023-07-13T03:41:14;8.05;;;2.75;;
11907;SDS011;6014;47.690;9.130;2023-07-13T03:43:43;5.57;;;3.17;;
11907;SDS011;6014;47.690;9.130;2023-07-13T03:46:11;9.50;;;2.75;;
11907;SDS011;6014;47.690;9.130;2023-07-13T03:48:40;4.32;;;2.33;;
11907;SDS011;6014;47.690;9.130;2023-07-13T03:51:12;5.28;;;2.67;;
11907;SDS011;6014;47.690;9.130;2023-07-13T03:53:42;8.05;;;2.95;;
11907;SDS011;6014;47.690;9.130;2023-07-13T03:56:12;5.65;;;2.72;;
11907;SDS011;6014;47.690;9.130;2023-07-13T03:58:43;5.32;;;3.15;;
11907;SDS011;6014;47.690;9.130;2023-07-13T04:01:13;7.20;;;2.72;;
11907;SDS011;6014;47.690;9.130;2023-07-13T04:03:43;5.70;;;2.83;;
11907;SDS011;6014;47.690;9.130;2023-07-13T04:06:15;7.15;;;2.88;;
11907;SDS011;6014;47.690;9.130;2023-07-13T04:08:48;6.78;;;3.08;;
11907;SDS011;6014;47.690;9.130;2023-07-13T04:11:20;6.82;;;3.20;;
11907;SDS011;6014;47.690;9.130;2023-07-13T04:13:50;5.10;;;2.97;;
11907;SDS011;6014;47.690;9.130;2023-07-13T04:16:21;7.18;;;2.83;;
11907;SDS011;6014;47.690;9.130;2023-07-13T04:18:50;8.57;;;2.78;;
11907;SDS011;6014;47.690;9.130;2023-07-13T04:21:22;8.55;;;3.25;;
11907;SDS011;6014;47.690;9.130;2023-07-13T04:23:51;7.47;;;2.88;;
11907;SDS011;6014;47.690;9.130;2023-07-13T04:26:20;7.43;;;3.00;;
11907;SDS011;6014;47.690;9.130;2023-07-13T04:28:49;5.93;;;3.03;;
11907;SDS011;6014;47.690;9.130;2023-07-13T04:31:18;5.35;;;2.67;;
11907;SDS011;6014;47.690;9.130;2023-07-13T04:33:47;6.57;;;2.60;;
11907;SDS011;6014;47.690;9.130;2023-07-13T04:36:27;5.53;;;3.08;;
11907;SDS011;6014;47.690;9.130;2023-07-13T04:38:55;5.63;;;3.15;;
11907;SDS011;6014;47.690;9.130;2023-07-13T04:41:24;9.68;;;3.30;;
11907;SDS011;6014;47.690;9.130;2023-07-13T04:43:52;5.38;;;2.70;;
11907;SDS011;6014;47.690;9.130;2023-07-13T04:46:28;5.72;;;2.95;;
11907;SDS011;6014;47.690;9.130;2023-07-13T04:48:56;7.53;;;3.72;;
11907;SDS011;6014;47.690;9.130;2023-07-13T04:51:25;5.72;;;3.00;;
11907;SDS011;6014;47.690;9.130;2023-07-13T04:53:54;6.15;;;3.15;;
11907;SDS011;6014;47.690;9.130;2023-07-13T04:56:26;10.10;;;3.10;;
11907;SDS011;6014;47.690;9.130;2023-07-13T04:58:55;6.35;;;3.78;;
11907;SDS011;6014;47.690;9.130;2023-07-13T05:01:24;9.57;;;2.88;;
11907;SDS011;6014;47.690;9.130;2023-07-13T05:03:53;6.72;;;3.28;;
11907;SDS011;6014;47.690;9.130;2023-07-13T05:06:25;5.97;;;2.78;;
11907;SDS011;6014;47.690;9.130;2023-07-13T05:08:54;6.57;;;3.00;;
11907;SDS011;6014;47.690;9.130;2023-07-13T05:11:25;7.68;;;2.70;;
11907;SDS011;6014;47.690;9.130;2023-07-13T05:13:53;5.38;;;2.55;;
11907;SDS011;6014;47.690;9.130;2023-07-13T05:16:21;6.13;;;3.28;;
11907;SDS011;6014;47.690;9.130;2023-07-13T05:18:50;5.85;;;2.85;;
11907;SDS011;6014;47.690;9.130;2023-07-13T05:21:18;4.97;;;2.70;;
11907;SDS011;6014;47.690;9.130;2023-07-13T05:23:46;6.07;;;2.95;;
11907;SDS011;6014;47.690;9.130;2023-07-13T05:26:16;5.10;;;2.75;;
11907;SDS011;6014;47.690;9.130;2023-07-13T05:28:45;7.93;;;2.67;;
11907;SDS011;6014;47.690;9.130;2023-07-13T05:31:14;6.32;;;3.03;;
11907;SDS011;6014;47.690;9.130;2023-07-13T05:33:42;4.85;;;2.22;;
11907;SDS011;6014;47.690;9.130;2023-07-13T05:36:10;8.02;;;2.90;;
11907;SDS011;6014;47.690;9.130;2023-07-13T05:38:39;5.45;;;2.40;;
11907;SDS011;6014;47.690;9.130;2023-07-13T05:41:07;4.55;;;2.10;;
11907;SDS011;6014;47.690;9.130;2023-07-13T05:43:37;5.88;;;2.60;;
11907;SDS011;6014;47.690;9.130;2023-07-13T05:46:06;6.35;;;2.35;;
11907;SDS011;6014;47.690;9.130;2023-07-13T05:48:34;6.30;;;2.40;;
11907;SDS011;6014;47.690;9.130;2023-07-13T05:51:02;6.20;;;2.47;;
11907;SDS011;6014;47.690;9.130;2023-07-13T05:53:31;6.03;;;2.85;;
11907;SDS011;6014;47.690;9.130;2023-07-13T05:55:59;7.30;;;2.60;;
11907;SDS011;6014;47.690;9.130;2023-07-13T05:58:28;4.80;;;2.50;;
11907;SDS011;6014;47.690;9.130;2023-07-13T06:01:04;6.75;;;2.78;;
11907;SDS011;6014;47.690;9.130;2023-07-13T06:03:38;6.15;;;2.70;;
11907;SDS011;6014;47.690;9.130;2023-07-13T06:06:07;5.65;;;2.92;;
11907;SDS011;6014;47.690;9.130;2023-07-13T06:08:37;8.40;;;2.83;;
11907;SDS011;6014;47.690;9.130;2023-07-13T06:11:06;5.35;;;2.65;;
11907;SDS011;6014;47.690;9.130;2023-07-13T06:13:42;7.63;;;3.40;;
11907;SDS011;6014;47.690;9.130;2023-07-13T06:16:12;7.63;;;2.80;;
11907;SDS011;6014;47.690;9.130;2023-07-13T06:18:42;5.93;;;3.03;;
11907;SDS011;6014;47.690;9.130;2023-07-13T06:21:11;6.82;;;3.30;;
11907;SDS011;6014;47.690;9.130;2023-07-13T06:23:42;6.85;;;3.10;;
11907;SDS011;6014;47.690;9.130;2023-07-13T06:26:14;7.40;;;3.28;;
11907;SDS011;6014;47.690;9.130;2023-07-13T06:28:44;7.30;;;3.60;;
11907;SDS011;6014;47.690;9.130;2023-07-13T06:31:14;6.05;;;2.95;;
11907;SDS011;6014;47.690;9.130;2023-07-13T06:33:43;8.20;;;2.80;;
11907;SDS011;6014;47.690;9.130;2023-07-13T06:36:11;5.57;;;2.80;;
11907;SDS011;6014;47.690;9.130;2023-07-13T06:38:40;5.68;;;3.00;;
11907;SDS011;6014;47.690;9.130;2023-07-13T06:41:08;5.78;;;2.90;;
11907;SDS011;6014;47.690;9.130;2023-07-13T06:43:37;7.60;;;2.50;;
11907;SDS011;6014;47.690;9.130;2023-07-13T06:46:07;4.22;;;2.33;;
11907;SDS011;6014;47.690;9.130;2023-07-13T06:48:37;5.47;;;2.72;;
11907;SDS011;6014;47.690;9.130;2023-07-13T06:51:05;7.13;;;3.13;;
11907;SDS011;6014;47.690;9.130;2023-07-13T06:53:33;4.97;;;2.60;;
11907;SDS011;6014;47.690;9.130;2023-07-13T06:56:02;5.35;;;2.55;;
11907;SDS011;6014;47.690;9.130;2023-07-13T06:58:33;27.33;;;3.72;;
11907;SDS011;6014;47.690;9.130;2023-07-13T07:01:03;5.57;;;2.10;;
11907;SDS011;6014;47.690;9.130;2023-07-13T07:03:33;5.28;;;2.03;;
11907;SDS011;6014;47.690;9.130;2023-07-13T07:06:06;6.55;;;1.95;;
11907;SDS011;6014;47.690;9.130;2023-07-13T07:08:50;3.80;;;1.88;;
11907;SDS011;6014;47.690;9.130;2023-07-13T07:11:20;4.20;;;1.90;;
11907;SDS011;6014;47.690;9.130;2023-07-13T07:13:51;3.75;;;1.67;;
11907;SDS011;6014;47.690;9.130;2023-07-13T07:16:20;13.13;;;2.63;;
11907;SDS011;6014;47.690;9.130;2023-07-13T07:21:25;4.53;;;2.20;;
11907;SDS011;6014;47.690;9.130;2023-07-13T07:23:53;5.97;;;1.77;;
11907;SDS011;6014;47.690;9.130;2023-07-13T07:26:21;6.53;;;2.40;;
11907;SDS011;6014;47.690;9.130;2023-07-13T07:29:04;4.00;;;1.95;;
11907;SDS011;6014;47.690;9.130;2023-07-13T07:31:35;4.85;;;2.30;;
11907;SDS011;6014;47.690;9.130;2023-07-13T07:34:06;4.53;;;2.30;;
11907;SDS011;6014;47.690;9.130;2023-07-13T07:36:41;4.72;;;2.00;;
11907;SDS011;6014;47.690;9.130;2023-07-13T07:39:12;3.65;;;2.20;;
11907;SDS011;6014;47.690;9.130;2023-07-13T07:41:40;5.00;;;2.17;;
11907;SDS011;6014;47.690;9.130;2023-07-13T07:44:22;5.47;;;2.08;;
11907;SDS011;6014;47.690;9.130;2023-07-13T07:47:01;3.78;;;1.92;;
11907;SDS011;6014;47.690;9.130;2023-07-13T07:49:29;4.38;;;1.88;;
11907;SDS011;6014;47.690;9.130;2023-07-13T07:52:01;6.10;;;2.25;;
11907;SDS011;6014;47.690;9.130;2023-07-13T07:54:30;6.63;;;2.72;;
11907;SDS011;6014;47.690;9.130;2023-07-13T07:57:20;7.35;;;3.42;;
11907;SDS011;6014;47.690;9.130;2023-07-13T07:59:57;6.35;;;2.33;;
11907;SDS011;6014;47.690;9.130;2023-07-13T08:02:34;5.57;;;2.38;;
11907;SDS011;6014;47.690;9.130;2023-07-13T08:05:06;4.75;;;2.55;;
11907;SDS011;6014;47.690;9.130;2023-07-13T08:07:40;4.95;;;2.00;;
11907;SDS011;6014;47.690;9.130;2023-07-13T08:10:08;3.63;;;1.83;;
11907;SDS011;6014;47.690;9.130;2023-07-13T08:12:37;2.60;;;1.55;;
11907;SDS011;6014;47.690;9.130;2023-07-13T08:15:11;5.07;;;2.10;;
11907;SDS011;6014;47.690;9.130;2023-07-13T08:17:42;5.15;;;2.05;;
11907;SDS011;6014;47.690;9.130;2023-07-13T08:20:11;4.03;;;1.80;;
11907;SDS011;6014;47.690;9.130;2023-07-13T08:22:41;4.60;;;1.80;;
11907;SDS011;6014;47.690;9.130;2023-07-13T08:25:09;4.78;;;2.10;;
11907;SDS011;6014;47.690;9.130;2023-07-13T08:27:37;5.47;;;2.22;;
11907;SDS011;6014;47.690;9.130;2023-07-13T08:30:06;2.72;;;1.58;;
11907;SDS011;6014;47.690;9.130;2023-07-13T08:32:35;3.22;;;1.90;;
11907;SDS011;6014;47.690;9.130;2023-07-13T08:35:05;5.35;;;1.80;;
11907;SDS011;6014;47.690;9.130;2023-07-13T08:37:34;5.88;;;1.88;;
11907;SDS011;6014;47.690;9.130;2023-07-13T08:40:04;9.43;;;2.22;;
11907;SDS011;6014;47.690;9.130;2023-07-13T08:42:36;5.63;;;1.98;;
11907;SDS011;6014;47.690;9.130;2023-07-13T08:45:11;7.32;;;1.80;;
11907;SDS011;6014;47.690;9.130;2023-07-13T08:47:47;5.25;;;1.80;;
11907;SDS011;6014;47.690;9.130;2023-07-13T08:50:32;5.97;;;2.00;;
11907;SDS011;6014;47.690;9.130;2023-07-13T08:53:43;5.25;;;2.15;;
11907;SDS011;6014;47.690;9.130;2023-07-13T08:56:18;3.70;;;1.70;;
11907;SDS011;6014;47.690;9.130;2023-07-13T08:58:50;6.72;;;2.17;;
11907;SDS011;6014;47.690;9.130;2023-07-13T09:01:24;4.03;;;1.90;;
11907;SDS011;6014;47.690;9.130;2023-07-13T09:04:01;6.25;;;1.73;;
11907;SDS011;6014;47.690;9.130;2023-07-13T09:06:45;6.00;;;1.90;;
11907;SDS011;6014;47.690;9.130;2023-07-13T09:09:28;4.45;;;1.50;;
11907;SDS011;6014;47.690;9.130;2023-07-13T09:12:11;4.68;;;1.52;;
11907;SDS011;6014;47.690;9.130;2023-07-13T09:14:46;4.55;;;2.15;;
11907;SDS011;6014;47.690;9.130;2023-07-13T09:17:19;6.05;;;1.60;;
11907;SDS011;6014;47.690;9.130;2023-07-13T09:19:56;2.40;;;1.40;;
11907;SDS011;6014;47.690;9.130;2023-07-13T09:22:31;4.95;;;1.73;;
11907;SDS011;6014;47.690;9.130;2023-07-13T09:25:02;4.13;;;1.65;;
11907;SDS011;6014;47.690;9.130;2023-07-13T09:27:47;4.20;;;1.70;;
11907;SDS011;6014;47.690;9.130;2023-07-13T09:30:27;4.97;;;1.40;;
11907;SDS011;6014;47.690;9.130;2023-07-13T09:33:01;3.58;;;1.80;;
11907;SDS011;6014;47.690;9.130;2023-07-13T09:35:30;4.22;;;1.55;;
11907;SDS011;6014;47.690;9.130;2023-07-13T09:38:10;2.95;;;1.48;;
11907;SDS011;6014;47.690;9.130;2023-07-13T09:40:46;3.70;;;1.40;;
11907;SDS011;6014;47.690;9.130;2023-07-13T09:43:29;3.15;;;1.48;;
11907;SDS011;6014;47.690;9.130;2023-07-13T09:45:57;3.70;;;1.90;;
11907;SDS011;6014;47.690;9.130;2023-07-13T09:48:26;5.65;;;1.80;;
11907;SDS011;6014;47.690;9.130;2023-07-13T09:51:06;3.42;;;1.73;;
11907;SDS011;6014;47.690;9.130;2023-07-13T09:53:41;4.63;;;1.65;;
11907;SDS011;6014;47.690;9.130;2023-07-13T09:56:19;2.05;;;1.50;;
11907;SDS011;6014;47.690;9.130;2023-07-13T09:58:49;5.28;;;1.63;;
11907;SDS011;6014;47.690;9.130;2023-07-13T10:01:18;4.93;;;1.63;;
11907;SDS011;6014;47.690;9.130;2023-07-13T10:04:01;3.13;;;1.65;;
11907;SDS011;6014;47.690;9.130;2023-07-13T10:06:38;3.97;;;1.92;;
11907;SDS011;6014;47.690;9.130;2023-07-13T10:09:09;3.45;;;1.50;;
11907;SDS011;6014;47.690;9.130;2023-07-13T10:11:40;4.82;;;1.55;;
11907;SDS011;6014;47.690;9.130;2023-07-13T10:14:11;8.65;;;2.00;;
11907;SDS011;6014;47.690;9.130;2023-07-13T10:16:43;3.40;;;1.40;;
11907;SDS011;6014;47.690;9.130;2023-07-13T10:19:15;5.40;;;1.85;;
11907;SDS011;6014;47.690;9.130;2023-07-13T10:21:52;4.50;;;1.88;;
11907;SDS011;6014;47.690;9.130;2023-07-13T10:24:23;3.38;;;1.50;;
11907;SDS011;6014;47.690;9.130;2023-07-13T10:26:56;4.72;;;1.90;;
11907;SDS011;6014;47.690;9.130;2023-07-13T10:29:32;5.95;;;2.38;;
11907;SDS011;6014;47.690;9.130;2023-07-13T10:32:07;6.30;;;1.95;;
11907;SDS011;6014;47.690;9.130;2023-07-13T10:34:37;6.63;;;1.77;;
11907;SDS011;6014;47.690;9.130;2023-07-13T10:37:07;4.18;;;2.13;;
11907;SDS011;6014;47.690;9.130;2023-07-13T10:39:46;3.78;;;1.80;;
11907;SDS011;6014;47.690;9.130;2023-07-13T10:42:18;4.07;;;1.65;;
11907;SDS011;6014;47.690;9.130;2023-07-13T10:44:55;2.75;;;1.60;;
11907;SDS011;6014;47.690;9.130;2023-07-13T10:47:23;3.35;;;1.90;;
11907;SDS011;6014;47.690;9.130;2023-07-13T10:49:54;7.47;;;1.77;;
11907;SDS011;6014;47.690;9.130;2023-07-13T10:52:37;7.03;;;1.98;;
11907;SDS011;6014;47.690;9.130;2023-07-13T10:58:14;3.30;;;1.52;;
11907;SDS011;6014;47.690;9.130;2023-07-13T11:00:49;3.03;;;1.40;;
11907;SDS011;6014;47.690;9.130;2023-07-13T11:03:37;2.78;;;1.40;;
11907;SDS011;6014;47.690;9.130;2023-07-13T11:06:34;3.50;;;1.60;;
11907;SDS011;6014;47.690;9.130;2023-07-13T11:09:30;3.55;;;1.50;;
11907;SDS011;6014;47.690;9.130;2023-07-13T11:12:06;5.45;;;1.77;;
11907;SDS011;6014;47.690;9.130;2023-07-13T11:15:00;4.70;;;1.40;;
11907;SDS011;6014;47.690;9.130;2023-07-13T11:17:36;3.85;;;1.55;;
11907;SDS011;6014;47.690;9.130;2023-07-13T11:20:20;5.03;;;1.52;;
11907;SDS011;6014;47.690;9.130;2023-07-13T11:26:00;3.40;;;1.60;;
11907;SDS011;6014;47.690;9.130;2023-07-13T11:28:30;6.90;;;2.00;;
11907;SDS011;6014;47.690;9.130;2023-07-13T11:31:01;4.55;;;1.70;;
11907;SDS011;6014;47.690;9.130;2023-07-13T11:36:42;4.63;;;1.60;;
11907;SDS011;6014;47.690;9.130;2023-07-13T11:39:17;5.75;;;1.75;;
11907;SDS011;6014;47.690;9.130;2023-07-13T11:41:50;3.67;;;1.50;;
11907;SDS011;6014;47.690;9.130;2023-07-13T11:44:22;5.53;;;1.77;;
11907;SDS011;6014;47.690;9.130;2023-07-13T11:46:52;4.90;;;2.00;;
11907;SDS011;6014;47.690;9.130;2023-07-13T11:49:24;3.72;;;1.60;;
11907;SDS011;6014;47.690;9.130;2023-07-13T11:51:59;5.68;;;1.92;;
11907;SDS011;6014;47.690;9.130;2023-07-13T11:54:29;4.60;;;1.63;;
11907;SDS011;6014;47.690;9.130;2023-07-13T11:57:01;5.75;;;1.60;;
11907;SDS011;6014;47.690;9.130;2023-07-13T11:59:36;6.30;;;1.70;;
11907;SDS011;6014;47.690;9.130;2023-07-13T12:02:08;5.70;;;1.90;;
11907;SDS011;6014;47.690;9.130;2023-07-13T12:04:45;3.70;;;1.70;;
11907;SDS011;6014;47.690;9.130;2023-07-13T12:07:28;4.50;;;1.92;;
11907;SDS011;6014;47.690;9.130;2023-07-13T12:10:00;4.15;;;1.80;;
11907;SDS011;6014;47.690;9.130;2023-07-13T12:12:29;3.88;;;1.67;;
11907;SDS011;6014;47.690;9.130;2023-07-13T12:14:58;4.15;;;1.70;;
11907;SDS011;6014;47.690;9.130;2023-07-13T12:17:26;4.57;;;1.42;;
11907;SDS011;6014;47.690;9.130;2023-07-13T12:19:57;3.20;;;1.52;;
11907;SDS011;6014;47.690;9.130;2023-07-13T12:22:25;3.83;;;1.88;;
11907;SDS011;6014;47.690;9.130;2023-07-13T12:24:55;4.38;;;1.80;;
11907;SDS011;6014;47.690;9.130;2023-07-13T12:27:25;4.75;;;1.58;;
11907;SDS011;6014;47.690;9.130;2023-07-13T12:29:58;4.97;;;1.80;;
11907;SDS011;6014;47.690;9.130;2023-07-13T12:32:31;3.80;;;1.75;;
11907;SDS011;6014;47.690;9.130;2023-07-13T12:35:07;3.22;;;1.73;;
11907;SDS011;6014;47.690;9.130;2023-07-13T12:37:45;4.15;;;1.90;;
11907;SDS011;6014;47.690;9.130;2023-07-13T12:40:15;4.03;;;2.13;;
11907;SDS011;6014;47.690;9.130;2023-07-13T12:45:39;3.17;;;1.70;;
11907;SDS011;6014;47.690;9.130;2023-07-13T12:48:24;5.03;;;1.80;;
11907;SDS011;6014;47.690;9.130;2023-07-13T12:51:13;5.00;;;1.83;;
11907;SDS011;6014;47.690;9.130;2023-07-13T12:53:43;3.35;;;1.70;;
11907;SDS011;6014;47.690;9.130;2023-07-13T12:56:18;4.03;;;1.63;;
11907;SDS011;6014;47.690;9.130;2023-07-13T12:58:54;3.72;;;1.73;;
11907;SDS011;6014;47.690;9.130;2023-07-13T13:01:26;3.20;;;1.80;;
11907;SDS011;6014;47.690;9.130;2023-07-13T13:03:56;4.78;;;1.67;;
11907;SDS011;6014;47.690;9.130;2023-07-13T13:06:34;4.88;;;1.90;;
11907;SDS011;6014;47.690;9.130;2023-07-13T13:09:03;5.53;;;1.83;;
11907;SDS011;6014;47.690;9.130;2023-07-13T13:11:39;3.45;;;1.60;;
11907;SDS011;6014;47.690;9.130;2023-07-13T13:14:08;5.15;;;2.28;;
11907;SDS011;6014;47.690;9.130;2023-07-13T13:16:39;6.50;;;1.80;;
11907;SDS011;6014;47.690;9.130;2023-07-13T13:19:18;4.38;;;1.52;;
11907;SDS011;6014;47.690;9.130;2023-07-13T13:21:50;4.40;;;1.70;;
11907;SDS011;6014;47.690;9.130;2023-07-13T13:24:21;4.07;;;1.73;;
11907;SDS011;6014;47.690;9.130;2023-07-13T13:26:51;5.45;;;1.58;;
11907;SDS011;6014;47.690;9.130;2023-07-13T13:29:24;5.10;;;1.75;;
11907;SDS011;6014;47.690;9.130;2023-07-13T13:31:53;4.95;;;2.00;;
11907;SDS011;6014;47.690;9.130;2023-07-13T13:34:29;3.75;;;1.60;;
11907;SDS011;6014;47.690;9.130;2023-07-13T13:37:00;3.30;;;1.80;;
11907;SDS011;6014;47.690;9.130;2023-07-13T13:39:30;4.57;;;1.50;;
11907;SDS011;6014;47.690;9.130;2023-07-13T13:42:03;4.05;;;1.65;;
11907;SDS011;6014;47.690;9.130;2023-07-13T13:44:36;3.90;;;1.55;;
11907;SDS011;6014;47.690;9.130;2023-07-13T13:47:04;3.13;;;1.55;;
11907;SDS011;6014;47.690;9.130;2023-07-13T13:49:55;3.38;;;1.63;;
11907;SDS011;6014;47.690;9.130;2023-07-13T13:55:13;4.30;;;1.60;;
11907;SDS011;6014;47.690;9.130;2023-07-13T13:57:42;3.97;;;1.73;;
11907;SDS011;6014;47.690;9.130;2023-07-13T14:00:11;4.53;;;1.73;;
11907;SDS011;6014;47.690;9.130;2023-07-13T14:02:41;2.80;;;1.23;;
11907;SDS011;6014;47.690;9.130;2023-07-13T14:05:15;3.92;;;1.60;;
11907;SDS011;6014;47.690;9.130;2023-07-13T14:07:50;4.22;;;1.48;;
11907;SDS011;6014;47.690;9.130;2023-07-13T14:10:19;4.15;;;1.30;;
11907;SDS011;6014;47.690;9.130;2023-07-13T14:12:50;2.85;;;1.40;;
11907;SDS011;6014;47.690;9.130;2023-07-13T14:15:21;2.25;;;1.38;;
11907;SDS011;6014;47.690;9.130;2023-07-13T14:17:51;3.65;;;1.30;;
11907;SDS011;6014;47.690;9.130;2023-07-13T14:20:21;2.92;;;1.13;;
11907;SDS011;6014;47.690;9.130;2023-07-13T14:22:52;3.33;;;1.48;;
11907;SDS011;6014;47.690;9.130;2023-07-13T14:25:21;4.78;;;1.67;;
11907;SDS011;6014;47.690;9.130;2023-07-13T14:27:51;4.18;;;1.38;;
11907;SDS011;6014;47.690;9.130;2023-07-13T14:30:25;2.90;;;1.25;;
11907;SDS011;6014;47.690;9.130;2023-07-13T14:33:00;3.50;;;1.35;;
11907;SDS011;6014;47.690;9.130;2023-07-13T14:35:28;2.33;;;1.23;;
11907;SDS011;6014;47.690;9.130;2023-07-13T14:37:58;2.17;;;1.30;;
11907;SDS011;6014;47.690;9.130;2023-07-13T14:40:28;3.90;;;1.48;;
11907;SDS011;6014;47.690;9.130;2023-07-13T14:42:59;3.20;;;1.23;;
11907;SDS011;6014;47.690;9.130;2023-07-13T14:45:27;3.33;;;1.15;;
11907;SDS011;6014;47.690;9.130;2023-07-13T14:47:58;6.38;;;1.55;;
11907;SDS011;6014;47.690;9.130;2023-07-13T14:50:28;3.75;;;1.38;;
11907;SDS011;6014;47.690;9.130;2023-07-13T14:53:00;2.95;;;1.52;;
11907;SDS011;6014;47.690;9.130;2023-07-13T14:55:29;3.85;;;1.60;;
11907;SDS011;6014;47.690;9.130;2023-07-13T14:57:58;5.15;;;1.60;;
11907;SDS011;6014;47.690;9.130;2023-07-13T15:00:26;2.45;;;1.20;;
11907;SDS011;6014;47.690;9.130;2023-07-13T15:02:57;3.00;;;1.30;;
11907;SDS011;6014;47.690;9.130;2023-07-13T15:05:29;5.80;;;1.58;;
11907;SDS011;6014;47.690;9.130;2023-07-13T15:08:01;5.03;;;1.70;;
11907;SDS011;6014;47.690;9.130;2023-07-13T15:10:32;5.15;;;1.55;;
11907;SDS011;6014;47.690;9.130;2023-07-13T15:13:12;4.45;;;1.80;;
11907;SDS011;6014;47.690;9.130;2023-07-13T15:15:44;3.20;;;1.35;;
11907;SDS011;6014;47.690;9.130;2023-07-13T15:18:15;3.38;;;1.83;;
11907;SDS011;6014;47.690;9.130;2023-07-13T15:20:46;4.45;;;1.60;;
11907;SDS011;6014;47.690;9.130;2023-07-13T15:23:17;2.67;;;1.33;;
11907;SDS011;6014;47.690;9.130;2023-07-13T15:25:46;2.40;;;1.35;;
11907;SDS011;6014;47.690;9.130;2023-07-13T15:28:15;2.88;;;1.35;;
11907;SDS011;6014;47.690;9.130;2023-07-13T15:30:43;4.13;;;1.67;;
11907;SDS011;6014;47.690;9.130;2023-07-13T15:33:15;3.20;;;1.42;;
11907;SDS011;6014;47.690;9.130;2023-07-13T15:35:46;3.50;;;1.25;;
11907;SDS011;6014;47.690;9.130;2023-07-13T15:38:18;4.10;;;1.70;;
11907;SDS011;6014;47.690;9.130;2023-07-13T15:44:19;3.08;;;1.58;;
11907;SDS011;6014;47.690;9.130;2023-07-13T15:46:54;4.25;;;1.40;;
11907;SDS011;6014;47.690;9.130;2023-07-13T15:49:22;4.43;;;1.60;;
11907;SDS011;6014;47.690;9.130;2023-07-13T15:51:51;3.05;;;1.50;;
11907;SDS011;6014;47.690;9.130;2023-07-13T15:54:21;3.92;;;1.63;;